Terminal Aerodrome Forecast
Issued by NWS

Home | Current Version | Previous Version | Text Only | Print | Product List | Glossary On
Versions: 1 2 3 4 5 6 7 8 9 10 11 12 13 14 15 16
000
FTUS44 KTSA 261900 AAB
TAFRVS
TAF AMD
KRVS 261932Z 2620/2718 18011G20KT P6SM BKN025 BKN200
     FM262300 17010KT 3SM -DZ OVC015
      TEMPO 2701/2705 2SM -RADZ OVC007
     FM270600 32010KT 4SM BR OVC025
      TEMPO 2706/2710 -RA
     FM271000 33010KT P6SM OVC040=

USA.gov is the U.S. government's official web portal to all federal, state and local government web resources and services.